createdAt,value
2023-04-30T00:01:29.001Z,100786.06
2023-04-30T00:04:01.484Z,100784.22
2023-04-30T00:06:37.246Z,100772.56
2023-04-30T00:09:05.280Z,100772.09
2023-04-30T00:11:33.786Z,100785.84
2023-04-30T00:14:01.832Z,100775.59
2023-04-30T00:16:30.933Z,100785.69
2023-04-30T00:19:00.800Z,100781.59
2023-04-30T00:21:30.300Z,100787.53
2023-04-30T00:24:00.398Z,100792.78
2023-04-30T00:26:29.196Z,100793.28
2023-04-30T00:28:57.806Z,100783.78
2023-04-30T00:31:28.118Z,100788.00
2023-04-30T00:33:59.456Z,100781.88
2023-04-30T00:36:29.640Z,100793.66
2023-04-30T00:38:58.040Z,100793.03
2023-04-30T00:41:28.133Z,100792.06
2023-04-30T00:43:57.397Z,100788.34
2023-04-30T00:46:26.397Z,100772.56
2023-04-30T00:49:00.452Z,100785.59
2023-04-30T00:51:33.318Z,100788.88
2023-04-30T00:54:03.979Z,100798.53
2023-04-30T00:56:32.711Z,100798.38
2023-04-30T00:59:01.507Z,100805.44
2023-04-30T01:01:29.913Z,100806.94
2023-04-30T01:03:58.509Z,100798.59
2023-04-30T01:06:27.838Z,100798.59
2023-04-30T01:08:57.865Z,100808.22
2023-04-30T01:11:36.473Z,100811.97
2023-04-30T01:14:09.762Z,100805.28
2023-04-30T01:16:48.972Z,100818.03
2023-04-30T01:19:37.525Z,100815.09
2023-04-30T01:22:11.014Z,100815.31
2023-04-30T01:25:15.848Z,100813.19
2023-04-30T01:28:14.687Z,100813.19
2023-04-30T01:30:45.833Z,100796.47
2023-04-30T01:33:14.058Z,100817.38
2023-04-30T01:36:08.818Z,100812.38
2023-04-30T01:38:53.787Z,100813.81
2023-04-30T01:41:31.405Z,100818.03
2023-04-30T01:44:18.587Z,100812.59
2023-04-30T01:46:54.542Z,100818.66
2023-04-30T01:49:33.830Z,100820.34
2023-04-30T01:52:11.799Z,100814.88
2023-04-30T01:54:48.068Z,100813.63
2023-04-30T01:57:22.343Z,100817.59
2023-04-30T01:59:53.199Z,100815.09
2023-04-30T02:02:21.268Z,100819.66
2023-04-30T02:04:50.312Z,100810.44
2023-04-30T02:07:38.585Z,100814.44
2023-04-30T02:10:08.781Z,100790.63
2023-04-30T02:12:37.243Z,100819.22
2023-04-30T02:15:11.272Z,100818.19
2023-04-30T02:17:41.877Z,100811.69
2023-04-30T02:20:10.963Z,100822.97
2023-04-30T02:22:40.249Z,100813.75
2023-04-30T02:25:12.875Z,100813.78
2023-04-30T02:27:41.318Z,100827.78
2023-04-30T02:30:14.147Z,100833.84
2023-04-30T02:32:42.283Z,100826.97
2023-04-30T02:35:11.905Z,100828.41
2023-04-30T02:37:39.903Z,100833.88
2023-04-30T02:40:11.361Z,100829.88
2023-04-30T02:42:39.883Z,100827.19
2023-04-30T02:45:14.990Z,100817.16
2023-04-30T02:47:44.662Z,100819.88
2023-04-30T02:50:13.637Z,100827.19
2023-04-30T02:52:44.382Z,100818.44
2023-04-30T02:55:13.602Z,100826.34
2023-04-30T02:57:43.273Z,100819.44
2023-04-30T03:00:15.588Z,100812.13
2023-04-30T03:02:46.649Z,100814.63
2023-04-30T03:05:16.195Z,100818.41
2023-04-30T03:07:45.137Z,100819.63
2023-04-30T03:10:13.757Z,100825.88
2023-04-30T03:12:42.803Z,100828.56
2023-04-30T03:15:12.751Z,100833.81
2023-04-30T03:17:42.577Z,100837.38
2023-04-30T03:20:12.720Z,100843.38
2023-04-30T03:22:41.602Z,100842.72
2023-04-30T03:25:10.867Z,100837.28
2023-04-30T03:27:40.690Z,100840.47
2023-04-30T03:30:13.474Z,100848.34
2023-04-30T03:32:41.585Z,100848.59
2023-04-30T03:35:16.908Z,100857.22
2023-04-30T03:37:44.963Z,100819.34
2023-04-30T03:40:15.044Z,100841.31
2023-04-30T03:42:42.900Z,100848.44
2023-04-30T03:45:18.383Z,100846.38
2023-04-30T03:47:46.784Z,100845.69
2023-04-30T03:50:15.479Z,100844.03
2023-04-30T03:52:43.770Z,100845.28
2023-04-30T03:55:12.673Z,100845.06
2023-04-30T03:57:41.836Z,100838.78
2023-04-30T04:00:12.935Z,100836.19
2023-04-30T04:02:43.929Z,100844.59
2023-04-30T04:05:16.814Z,100844.59
2023-04-30T04:07:47.577Z,100843.09
2023-04-30T04:10:18.339Z,100835.56
2023-04-30T04:12:54.175Z,100846.13
2023-04-30T04:15:23.178Z,100846.66
2023-04-30T04:17:55.038Z,100847.97
2023-04-30T04:20:23.625Z,100854.22
2023-04-30T04:22:54.643Z,100845.41
2023-04-30T04:25:27.428Z,100850.19
2023-04-30T04:27:56.899Z,100861.22
2023-04-30T04:30:28.359Z,100854.75
2023-04-30T04:32:58.577Z,100867.41
2023-04-30T04:35:27.708Z,100858.38
2023-04-30T04:37:56.354Z,100869.03
2023-04-30T04:40:32.306Z,100865.28
2023-04-30T04:43:03.836Z,100865.88
2023-04-30T04:45:34.087Z,100877.97
2023-04-30T04:48:03.427Z,100873.41
2023-04-30T04:50:39.014Z,100880.56
2023-04-30T04:53:11.532Z,100870.84
2023-04-30T04:55:40.142Z,100881.97
2023-04-30T04:58:08.926Z,100883.50
2023-04-30T05:00:37.249Z,100885.63
2023-04-30T05:03:07.969Z,100887.91
2023-04-30T05:05:37.921Z,100880.22
2023-04-30T05:08:06.772Z,100890.84
2023-04-30T05:10:34.887Z,100893.25
2023-04-30T05:13:06.802Z,100872.56
2023-04-30T05:15:36.124Z,100886.63
2023-04-30T05:18:05.329Z,100880.16
2023-04-30T05:20:36.057Z,100884.13
2023-04-30T05:23:05.404Z,100885.25
2023-04-30T05:25:33.331Z,100893.38
2023-04-30T05:28:02.462Z,100880.00
2023-04-30T05:30:34.208Z,100890.47
2023-04-30T05:33:03.576Z,100887.59
2023-04-30T05:35:35.872Z,100888.38
2023-04-30T05:38:10.668Z,100888.63
2023-04-30T05:40:40.914Z,100891.09
2023-04-30T05:43:09.942Z,100887.00
2023-04-30T05:45:41.067Z,100879.13
2023-04-30T05:48:10.026Z,100883.13
2023-04-30T05:50:39.023Z,100881.72
2023-04-30T05:53:10.512Z,100869.38
2023-04-30T05:55:45.865Z,100887.16
2023-04-30T05:58:14.085Z,100883.00
2023-04-30T06:00:44.493Z,100897.84
2023-04-30T06:03:14.346Z,100898.69
2023-04-30T06:05:43.066Z,100894.94
2023-04-30T06:08:12.846Z,100893.69
2023-04-30T06:10:42.037Z,100889.28
2023-04-30T06:13:14.900Z,100889.94
2023-04-30T06:15:46.562Z,100896.84
2023-04-30T06:18:17.137Z,100892.66
2023-04-30T06:20:46.127Z,100885.50
2023-04-30T06:23:19.394Z,100882.81
2023-04-30T06:25:51.911Z,100887.41
2023-04-30T06:28:21.782Z,100881.72
2023-04-30T06:30:50.243Z,100891.16
2023-04-30T06:33:21.290Z,100880.78
2023-04-30T06:35:54.874Z,100883.28
2023-04-30T06:38:26.163Z,100887.47
2023-04-30T06:40:56.461Z,100882.50
2023-04-30T06:43:24.997Z,100878.16
2023-04-30T06:45:54.702Z,100880.16
2023-04-30T06:48:22.970Z,100868.88
2023-04-30T06:50:50.939Z,100884.69
2023-04-30T06:53:18.968Z,100877.06
2023-04-30T06:55:56.606Z,100884.44
2023-04-30T06:58:24.529Z,100881.91
2023-04-30T07:01:02.113Z,100883.38
2023-04-30T07:03:31.583Z,100881.41
2023-04-30T07:06:00.679Z,100880.88
2023-04-30T07:08:30.242Z,100872.78
2023-04-30T07:10:59.763Z,100875.72
2023-04-30T07:13:28.010Z,100875.75
2023-04-30T07:15:57.460Z,100867.66
2023-04-30T07:18:27.146Z,100871.38
2023-04-30T07:20:55.357Z,100872.47
2023-04-30T07:23:23.463Z,100871.81
2023-04-30T07:25:51.395Z,100874.69
2023-04-30T07:28:21.662Z,100853.34
2023-04-30T07:30:49.493Z,100871.66
2023-04-30T07:33:17.599Z,100869.81
2023-04-30T07:35:46.955Z,100865.34
2023-04-30T07:38:18.956Z,100872.19
2023-04-30T07:40:47.065Z,100845.44
2023-04-30T07:43:18.403Z,100870.56
2023-04-30T07:45:50.548Z,100865.53
2023-04-30T07:48:18.996Z,100871.56
2023-04-30T07:50:50.558Z,100866.44
2023-04-30T07:53:19.462Z,100865.88
2023-04-30T07:55:51.746Z,100875.19
2023-04-30T07:58:20.791Z,100872.19
2023-04-30T08:00:53.643Z,100869.38
2023-04-30T08:03:21.896Z,100880.38
2023-04-30T08:05:52.642Z,100881.63
2023-04-30T08:08:21.878Z,100868.94
2023-04-30T08:10:49.666Z,100863.84
2023-04-30T08:13:18.742Z,100873.34
2023-04-30T08:15:47.126Z,100873.88
2023-04-30T08:18:16.689Z,100865.50
2023-04-30T08:20:45.782Z,100863.25
2023-04-30T08:23:16.838Z,100848.03
2023-04-30T08:25:46.149Z,100853.88
2023-04-30T08:28:16.393Z,100861.59
2023-04-30T08:30:44.779Z,100854.19
2023-04-30T08:33:14.346Z,100866.50
2023-04-30T08:35:43.885Z,100864.06
2023-04-30T08:38:15.681Z,100859.75
2023-04-30T08:40:52.119Z,100861.00
2023-04-30T08:43:20.645Z,100850.72
2023-04-30T08:45:52.492Z,100847.28
2023-04-30T08:48:23.283Z,100857.84
2023-04-30T08:50:57.404Z,100851.16
2023-04-30T08:53:28.228Z,100846.94
2023-04-30T08:55:57.471Z,100842.78
2023-04-30T08:58:26.453Z,100852.78
2023-04-30T09:00:57.232Z,100833.91
2023-04-30T09:03:28.712Z,100839.41
2023-04-30T09:06:00.674Z,100825.97
2023-04-30T09:08:45.598Z,100836.28
2023-04-30T09:11:25.643Z,100842.34
2023-04-30T09:13:58.099Z,100843.56
2023-04-30T09:16:31.151Z,100849.38
2023-04-30T09:19:00.548Z,100839.00
2023-04-30T09:21:37.789Z,100854.91
2023-04-30T09:24:07.136Z,100838.41
2023-04-30T09:26:36.252Z,100824.38
2023-04-30T09:29:10.227Z,100837.72
2023-04-30T09:31:42.003Z,100827.81
2023-04-30T09:34:10.794Z,100827.59
2023-04-30T09:36:55.318Z,100828.66
2023-04-30T09:39:24.372Z,100817.22
2023-04-30T09:41:53.679Z,100811.19
2023-04-30T09:44:30.752Z,100815.78
2023-04-30T09:46:59.678Z,100814.00
2023-04-30T09:49:31.928Z,100801.97
2023-04-30T09:52:04.854Z,100812.38
2023-04-30T09:54:33.856Z,100810.28
2023-04-30T09:57:07.344Z,100817.22
2023-04-30T09:59:38.052Z,100820.03
2023-04-30T10:02:11.535Z,100802.38
2023-04-30T10:04:43.159Z,100796.75
2023-04-30T10:07:18.766Z,100791.97
2023-04-30T10:09:53.037Z,100797.88
2023-04-30T10:12:33.717Z,100791.06
2023-04-30T10:15:11.050Z,100793.81
2023-04-30T10:17:44.365Z,100782.56
2023-04-30T10:20:15.681Z,100776.00
2023-04-30T10:22:47.445Z,100792.19
2023-04-30T10:25:16.338Z,100779.19
2023-04-30T10:27:46.289Z,100771.19
2023-04-30T10:30:16.119Z,100764.47
2023-04-30T10:32:57.252Z,100762.16
2023-04-30T10:35:31.768Z,100759.09
2023-04-30T10:38:13.359Z,100756.34
2023-04-30T10:40:41.955Z,100755.88
2023-04-30T10:43:13.260Z,100738.34
2023-04-30T10:45:44.782Z,100749.19
2023-04-30T10:48:16.109Z,100725.94
2023-04-30T10:50:47.190Z,100739.53
2023-04-30T10:53:22.324Z,100737.50
2023-04-30T10:55:55.712Z,100738.97
2023-04-30T10:58:29.968Z,100724.03
2023-04-30T11:01:06.471Z,100725.31
2023-04-30T11:03:38.148Z,100716.81
2023-04-30T11:06:13.086Z,100716.03
2023-04-30T11:08:47.588Z,100717.09
2023-04-30T11:11:21.980Z,100711.25
2023-04-30T11:14:02.096Z,100684.00
2023-04-30T11:16:32.335Z,100709.91
2023-04-30T11:19:18.489Z,100706.31
2023-04-30T11:22:18.035Z,100701.50
2023-04-30T11:25:09.486Z,100696.28
2023-04-30T11:27:40.222Z,100697.81
2023-04-30T11:30:21.477Z,100687.06
2023-04-30T11:32:56.250Z,100692.13
2023-04-30T11:35:24.407Z,100689.72
2023-04-30T11:37:57.001Z,100688.41
2023-04-30T11:40:29.524Z,100682.88
2023-04-30T11:42:57.440Z,100689.22
2023-04-30T11:45:29.496Z,100674.56
2023-04-30T11:48:02.885Z,100667.38
2023-04-30T11:50:35.759Z,100664.88
2023-04-30T11:53:06.181Z,100658.22
2023-04-30T11:55:38.708Z,100678.41
2023-04-30T11:58:14.666Z,100663.31
2023-04-30T12:00:43.478Z,100675.25
2023-04-30T12:03:17.472Z,100667.69
2023-04-30T12:05:47.380Z,100661.59
2023-04-30T12:08:17.705Z,100653.50
2023-04-30T12:10:47.620Z,100644.28
2023-04-30T12:13:18.230Z,100643.94
2023-04-30T12:15:59.829Z,100643.84
2023-04-30T12:18:28.210Z,100643.69
2023-04-30T12:20:57.905Z,100631.41
2023-04-30T12:23:28.382Z,100645.03
2023-04-30T12:26:01.143Z,100640.53
2023-04-30T12:28:30.015Z,100648.81
2023-04-30T12:30:58.022Z,100643.09
2023-04-30T12:33:26.465Z,100640.72
2023-04-30T12:35:57.353Z,100635.63
2023-04-30T12:38:26.465Z,100635.47
2023-04-30T12:40:55.661Z,100641.94
2023-04-30T12:43:25.426Z,100637.75
2023-04-30T12:46:05.132Z,100636.22
2023-04-30T12:48:48.233Z,100632.91
2023-04-30T12:51:21.481Z,100632.34
2023-04-30T12:53:51.864Z,100620.50
2023-04-30T12:56:23.298Z,100610.56
2023-04-30T12:58:53.809Z,100614.41
2023-04-30T13:01:26.082Z,100611.22
2023-04-30T13:03:54.834Z,100605.84
2023-04-30T13:06:27.511Z,100609.03
2023-04-30T13:09:01.655Z,100608.25
2023-04-30T13:11:31.115Z,100603.91
2023-04-30T13:14:00.390Z,100595.63
2023-04-30T13:16:29.108Z,100575.84
2023-04-30T13:18:59.324Z,100589.06
2023-04-30T13:21:28.734Z,100575.91
2023-04-30T13:23:59.739Z,100587.22
2023-04-30T13:26:29.718Z,100574.81
2023-04-30T13:29:02.002Z,100578.72
2023-04-30T13:31:33.000Z,100585.44
2023-04-30T13:34:06.925Z,100572.78
2023-04-30T13:36:35.920Z,100574.69
2023-04-30T13:39:06.789Z,100578.53
2023-04-30T13:41:37.740Z,100576.38
2023-04-30T13:44:11.270Z,100560.88
2023-04-30T13:46:40.033Z,100556.78
2023-04-30T13:49:10.074Z,100558.06
2023-04-30T13:51:38.635Z,100532.69
2023-04-30T13:54:07.031Z,100556.97
2023-04-30T13:56:35.321Z,100557.50
2023-04-30T13:59:13.776Z,100557.16
2023-04-30T14:01:44.410Z,100551.94
2023-04-30T14:04:12.913Z,100553.50
2023-04-30T14:06:41.909Z,100546.28
2023-04-30T14:09:10.084Z,100547.91
2023-04-30T14:11:40.382Z,100543.06
2023-04-30T14:14:15.077Z,100553.31
2023-04-30T14:16:45.181Z,100547.31
2023-04-30T14:19:13.882Z,100548.53
2023-04-30T14:21:42.379Z,100547.84
2023-04-30T14:24:12.604Z,100538.56
2023-04-30T14:26:42.033Z,100537.75
2023-04-30T14:29:11.340Z,100527.22
2023-04-30T14:31:42.081Z,100522.34
2023-04-30T14:34:17.708Z,100531.97
2023-04-30T14:36:45.500Z,100516.81
2023-04-30T14:39:17.881Z,100521.75
2023-04-30T14:41:48.368Z,100512.56
2023-04-30T14:44:19.927Z,100509.31
2023-04-30T14:46:50.012Z,100503.31
2023-04-30T14:49:20.417Z,100515.13
2023-04-30T14:51:50.592Z,100495.19
2023-04-30T14:54:18.672Z,100511.63
2023-04-30T14:56:47.309Z,100506.56
2023-04-30T14:59:15.537Z,100511.84
2023-04-30T15:01:43.823Z,100502.06
2023-04-30T15:04:12.694Z,100513.50
2023-04-30T15:06:42.394Z,100508.03
2023-04-30T15:09:11.563Z,100512.44
2023-04-30T15:11:40.687Z,100511.91
2023-04-30T15:14:09.333Z,100509.13
2023-04-30T15:16:37.562Z,100508.59
2023-04-30T15:19:09.085Z,100502.00
2023-04-30T15:21:53.020Z,100500.88
2023-04-30T15:24:22.450Z,100495.84
2023-04-30T15:26:54.123Z,100481.88
2023-04-30T15:29:26.945Z,100495.00
2023-04-30T15:32:00.152Z,100488.53
2023-04-30T15:34:29.174Z,100485.53
2023-04-30T15:36:59.079Z,100486.75
2023-04-30T15:39:28.502Z,100480.72
2023-04-30T15:41:57.786Z,100474.81
2023-04-30T15:44:27.039Z,100490.06
2023-04-30T15:46:57.101Z,100476.25
2023-04-30T15:49:29.034Z,100475.81
2023-04-30T15:52:00.222Z,100470.41
2023-04-30T15:54:32.509Z,100448.53
2023-04-30T15:57:03.220Z,100473.91
2023-04-30T15:59:31.548Z,100463.34
2023-04-30T16:02:02.722Z,100466.03
2023-04-30T16:04:31.135Z,100468.09
2023-04-30T16:07:03.638Z,100465.19
2023-04-30T16:09:34.955Z,100469.34
2023-04-30T16:12:06.324Z,100453.28
2023-04-30T16:14:35.741Z,100464.00
2023-04-30T16:17:04.096Z,100463.78
2023-04-30T16:19:32.300Z,100460.72
2023-04-30T16:22:01.275Z,100458.88
2023-04-30T16:24:30.117Z,100460.19
2023-04-30T16:27:00.295Z,100459.91
2023-04-30T16:29:30.809Z,100453.97
2023-04-30T16:31:59.280Z,100460.53
2023-04-30T16:34:30.647Z,100456.78
2023-04-30T16:37:01.092Z,100459.19
2023-04-30T16:39:29.706Z,100457.44
2023-04-30T16:42:00.260Z,100460.28
2023-04-30T16:44:28.986Z,100451.00
2023-04-30T16:46:59.834Z,100446.31
2023-04-30T16:49:31.351Z,100449.31
2023-04-30T16:51:59.544Z,100441.25
2023-04-30T16:54:30.599Z,100438.47
2023-04-30T16:57:04.475Z,100438.88
2023-04-30T16:59:32.646Z,100436.03
2023-04-30T17:02:03.817Z,100438.06
2023-04-30T17:04:33.810Z,100440.53
2023-04-30T17:07:02.838Z,100435.28
2023-04-30T17:09:31.556Z,100438.88
2023-04-30T17:12:05.465Z,100434.22
2023-04-30T17:14:33.474Z,100435.84
2023-04-30T17:17:02.889Z,100434.19
2023-04-30T17:19:34.033Z,100441.31
2023-04-30T17:22:03.483Z,100439.06
2023-04-30T17:24:34.399Z,100430.88
2023-04-30T17:27:06.146Z,100435.84
2023-04-30T17:29:35.475Z,100436.66
2023-04-30T17:32:06.881Z,100430.38
2023-04-30T17:34:38.785Z,100419.06
2023-04-30T17:37:09.002Z,100429.78
2023-04-30T17:39:42.284Z,100420.97
2023-04-30T17:42:12.481Z,100424.50
2023-04-30T17:44:42.291Z,100431.72
2023-04-30T17:47:10.759Z,100418.41
2023-04-30T17:49:39.423Z,100428.56
2023-04-30T17:52:07.277Z,100434.63
2023-04-30T17:54:40.051Z,100430.78
2023-04-30T17:57:08.486Z,100433.50
2023-04-30T17:59:36.676Z,100438.78
2023-04-30T18:02:09.154Z,100427.38
2023-04-30T18:04:40.454Z,100422.38
2023-04-30T18:07:11.500Z,100437.66
2023-04-30T18:09:39.572Z,100432.22
2023-04-30T18:12:07.962Z,100416.91
2023-04-30T18:14:38.342Z,100431.97
2023-04-30T18:17:08.609Z,100434.69
2023-04-30T18:19:38.647Z,100435.91
2023-04-30T18:22:09.633Z,100437.47
2023-04-30T18:24:38.170Z,100432.81
2023-04-30T18:27:06.901Z,100429.91
2023-04-30T18:29:36.834Z,100434.75
2023-04-30T18:32:10.079Z,100432.09
2023-04-30T18:34:43.712Z,100438.47
2023-04-30T18:37:11.905Z,100429.00
2023-04-30T18:39:41.518Z,100428.38
2023-04-30T18:42:10.302Z,100406.09
2023-04-30T18:44:38.985Z,100423.19
2023-04-30T18:47:09.193Z,100432.56
2023-04-30T18:49:38.376Z,100432.97
2023-04-30T18:52:06.451Z,100437.38
2023-04-30T18:54:36.192Z,100436.66
2023-04-30T18:57:06.317Z,100442.88
2023-04-30T18:59:39.043Z,100442.19
2023-04-30T19:02:12.561Z,100443.47
2023-04-30T19:04:40.707Z,100447.53
2023-04-30T19:07:09.019Z,100438.66
2023-04-30T19:09:37.635Z,100443.88
2023-04-30T19:12:06.506Z,100453.44
2023-04-30T19:14:35.794Z,100455.13
2023-04-30T19:17:05.695Z,100454.97
2023-04-30T19:19:38.615Z,100452.16
2023-04-30T19:22:08.614Z,100457.28
2023-04-30T19:24:44.883Z,100449.00
2023-04-30T19:27:14.023Z,100462.34
2023-04-30T19:29:42.647Z,100464.91
2023-04-30T19:32:18.115Z,100465.09
2023-04-30T19:34:52.362Z,100462.03
2023-04-30T19:37:21.451Z,100468.22
2023-04-30T19:39:50.000Z,100474.75
2023-04-30T19:42:21.452Z,100483.28
2023-04-30T19:44:52.989Z,100467.56
2023-04-30T19:47:21.979Z,100471.34
2023-04-30T19:49:53.813Z,100478.00
2023-04-30T19:52:22.122Z,100478.97
2023-04-30T19:54:50.506Z,100479.56
2023-04-30T19:57:18.802Z,100470.53
2023-04-30T19:59:47.862Z,100475.94
2023-04-30T20:02:16.550Z,100471.44
2023-04-30T20:04:45.452Z,100477.03
2023-04-30T20:07:19.267Z,100476.47
2023-04-30T20:09:48.446Z,100468.41
2023-04-30T20:12:16.902Z,100469.84
2023-04-30T20:14:47.452Z,100475.63
2023-04-30T20:17:16.892Z,100478.94
2023-04-30T20:19:51.557Z,100474.78
2023-04-30T20:22:20.890Z,100479.06
2023-04-30T20:24:55.480Z,100469.13
2023-04-30T20:27:25.781Z,100476.75
2023-04-30T20:29:54.202Z,100479.47
2023-04-30T20:32:28.609Z,100479.84
2023-04-30T20:35:00.701Z,100471.28
2023-04-30T20:37:30.808Z,100480.09
2023-04-30T20:40:01.932Z,100469.03
2023-04-30T20:42:31.864Z,100479.94
2023-04-30T20:45:02.369Z,100471.44
2023-04-30T20:47:31.700Z,100484.84
2023-04-30T20:50:02.026Z,100474.75
2023-04-30T20:52:31.526Z,100476.66
2023-04-30T20:55:00.125Z,100483.41
2023-04-30T20:57:30.345Z,100466.78
2023-04-30T20:59:59.024Z,100481.47
2023-04-30T21:02:31.171Z,100484.94
2023-04-30T21:05:05.577Z,100483.25
2023-04-30T21:07:35.566Z,100479.09
2023-04-30T21:10:08.663Z,100489.28
2023-04-30T21:12:38.281Z,100462.09
2023-04-30T21:15:07.398Z,100493.06
2023-04-30T21:17:36.701Z,100476.69
2023-04-30T21:20:05.619Z,100477.69
2023-04-30T21:22:37.615Z,100485.59
2023-04-30T21:25:06.945Z,100492.03
2023-04-30T21:27:35.861Z,100490.44
2023-04-30T21:30:05.959Z,100483.72
2023-04-30T21:32:34.345Z,100493.06
2023-04-30T21:35:02.805Z,100492.50
2023-04-30T21:37:31.895Z,100493.84
2023-04-30T21:40:01.249Z,100490.59
2023-04-30T21:42:30.387Z,100484.66
2023-04-30T21:45:00.688Z,100489.88
2023-04-30T21:47:31.701Z,100480.72
2023-04-30T21:49:59.603Z,100482.84
2023-04-30T21:52:28.071Z,100485.41
2023-04-30T21:55:00.560Z,100483.84
2023-04-30T21:57:30.346Z,100495.19
2023-04-30T21:59:59.847Z,100480.50
2023-04-30T22:02:29.831Z,100483.19
2023-04-30T22:04:59.470Z,100490.50
2023-04-30T22:07:28.133Z,100489.75
2023-04-30T22:09:59.434Z,100489.69
2023-04-30T22:12:31.875Z,100489.00
2023-04-30T22:15:03.163Z,100483.56
2023-04-30T22:17:35.312Z,100489.69
2023-04-30T22:20:05.058Z,100488.09
2023-04-30T22:22:40.435Z,100493.47
2023-04-30T22:25:10.192Z,100488.47
2023-04-30T22:27:39.922Z,100483.09
2023-04-30T22:30:09.021Z,100492.84
2023-04-30T22:32:39.482Z,100490.16
2023-04-30T22:35:10.559Z,100474.41
2023-04-30T22:37:41.626Z,100489.38
2023-04-30T22:40:10.242Z,100477.03
2023-04-30T22:42:41.640Z,100482.19
2023-04-30T22:45:10.921Z,100477.06
2023-04-30T22:47:38.822Z,100481.22
2023-04-30T22:50:08.752Z,100462.06
2023-04-30T22:52:39.420Z,100481.88
2023-04-30T22:55:10.640Z,100480.53
2023-04-30T22:57:41.041Z,100470.97
2023-04-30T23:00:14.373Z,100479.28
2023-04-30T23:02:43.705Z,100474.41
2023-04-30T23:05:15.417Z,100479.22
2023-04-30T23:07:48.802Z,100471.97
2023-04-30T23:10:17.379Z,100475.53
2023-04-30T23:12:47.304Z,100468.19
2023-04-30T23:15:15.275Z,100460.97
2023-04-30T23:17:45.385Z,100460.41
2023-04-30T23:20:13.855Z,100452.63
2023-04-30T23:22:41.963Z,100454.28
2023-04-30T23:25:11.468Z,100468.50
2023-04-30T23:27:40.647Z,100459.25
2023-04-30T23:30:11.838Z,100458.88
2023-04-30T23:32:39.695Z,100451.78
2023-04-30T23:35:10.648Z,100463.41
2023-04-30T23:37:40.843Z,100452.72
2023-04-30T23:40:12.539Z,100446.94
2023-04-30T23:42:41.633Z,100447.25
2023-04-30T23:45:11.729Z,100438.41
2023-04-30T23:47:40.840Z,100445.38
2023-04-30T23:50:10.560Z,100436.31
2023-04-30T23:52:43.492Z,100431.97
2023-04-30T23:55:12.546Z,100429.56
2023-04-30T23:57:42.449Z,100429.56
